sensor_id;sensor_type;location;lat;lon;timestamp;pressure;altitude;pressure_sealevel;temperature
68027;BMP180;54819;48.030;14.710;2022-07-12T00:02:03;98129.80;;;15.80
68027;BMP180;54819;48.030;14.710;2022-07-12T00:04:30;98131.60;;;15.70
68027;BMP180;54819;48.030;14.710;2022-07-12T00:06:57;98133.20;;;15.64
68027;BMP180;54819;48.030;14.710;2022-07-12T00:09:24;98127.60;;;15.60
68027;BMP180;54819;48.030;14.710;2022-07-12T00:11:51;98130.40;;;15.60
68027;BMP180;54819;48.030;14.710;2022-07-12T00:14:18;98128.80;;;15.50
68027;BMP180;54819;48.030;14.710;2022-07-12T00:16:45;98126.20;;;15.50
68027;BMP180;54819;48.030;14.710;2022-07-12T00:19:12;98120.60;;;15.50
68027;BMP180;54819;48.030;14.710;2022-07-12T00:21:39;98118.60;;;15.50
68027;BMP180;54819;48.030;14.710;2022-07-12T00:24:06;98118.00;;;15.56
68027;BMP180;54819;48.030;14.710;2022-07-12T00:26:33;98120.60;;;15.60
68027;BMP180;54819;48.030;14.710;2022-07-12T00:29:00;98118.20;;;15.60
68027;BMP180;54819;48.030;14.710;2022-07-12T00:31:26;98115.80;;;15.60
68027;BMP180;54819;48.030;14.710;2022-07-12T00:33:54;98113.00;;;15.60
68027;BMP180;54819;48.030;14.710;2022-07-12T00:36:21;98107.40;;;15.68
68027;BMP180;54819;48.030;14.710;2022-07-12T00:38:47;98107.80;;;15.70
68027;BMP180;54819;48.030;14.710;2022-07-12T00:41:14;98102.60;;;15.70
68027;BMP180;54819;48.030;14.710;2022-07-12T00:43:42;98107.20;;;15.70
68027;BMP180;54819;48.030;14.710;2022-07-12T00:46:09;98105.40;;;15.64
68027;BMP180;54819;48.030;14.710;2022-07-12T00:48:37;98103.40;;;15.66
68027;BMP180;54819;48.030;14.710;2022-07-12T00:51:04;98104.40;;;15.70
68027;BMP180;54819;48.030;14.710;2022-07-12T00:53:31;98106.40;;;15.70
68027;BMP180;54819;48.030;14.710;2022-07-12T00:55:58;98106.60;;;15.60
68027;BMP180;54819;48.030;14.710;2022-07-12T00:58:26;98107.20;;;15.60
68027;BMP180;54819;48.030;14.710;2022-07-12T01:00:56;98106.20;;;15.60
68027;BMP180;54819;48.030;14.710;2022-07-12T01:03:25;98107.80;;;15.60
68027;BMP180;54819;48.030;14.710;2022-07-12T01:05:53;98105.60;;;15.60
68027;BMP180;54819;48.030;14.710;2022-07-12T01:08:21;98109.20;;;15.60
68027;BMP180;54819;48.030;14.710;2022-07-12T01:10:48;98107.60;;;15.60
68027;BMP180;54819;48.030;14.710;2022-07-12T01:13:16;98112.80;;;15.60
68027;BMP180;54819;48.030;14.710;2022-07-12T01:15:47;98112.40;;;15.64
68027;BMP180;54819;48.030;14.710;2022-07-12T01:18:15;98110.40;;;15.70
68027;BMP180;54819;48.030;14.710;2022-07-12T01:20:44;98112.20;;;15.70
68027;BMP180;54819;48.030;14.710;2022-07-12T01:23:12;98110.80;;;15.70
68027;BMP180;54819;48.030;14.710;2022-07-12T01:25:39;98109.60;;;15.70
68027;BMP180;54819;48.030;14.710;2022-07-12T01:28:06;98113.00;;;15.70
68027;BMP180;54819;48.030;14.710;2022-07-12T01:30:33;98110.60;;;15.70
68027;BMP180;54819;48.030;14.710;2022-07-12T01:33:00;98105.00;;;15.70
68027;BMP180;54819;48.030;14.710;2022-07-12T01:35:28;98108.20;;;15.70
68027;BMP180;54819;48.030;14.710;2022-07-12T01:37:56;98106.80;;;15.70
68027;BMP180;54819;48.030;14.710;2022-07-12T01:40:23;98107.60;;;15.70
68027;BMP180;54819;48.030;14.710;2022-07-12T01:42:51;98104.80;;;15.70
68027;BMP180;54819;48.030;14.710;2022-07-12T01:45:19;98102.60;;;15.60
68027;BMP180;54819;48.030;14.710;2022-07-12T01:47:46;98102.00;;;15.60
68027;BMP180;54819;48.030;14.710;2022-07-12T01:50:13;98105.20;;;15.60
68027;BMP180;54819;48.030;14.710;2022-07-12T01:52:41;98105.00;;;15.52
68027;BMP180;54819;48.030;14.710;2022-07-12T01:55:09;98104.60;;;15.50
68027;BMP180;54819;48.030;14.710;2022-07-12T01:57:43;98109.00;;;15.50
68027;BMP180;54819;48.030;14.710;2022-07-12T02:00:12;98108.80;;;15.50
68027;BMP180;54819;48.030;14.710;2022-07-12T02:02:39;98106.40;;;15.50
68027;BMP180;54819;48.030;14.710;2022-07-12T02:05:06;98104.60;;;15.50
68027;BMP180;54819;48.030;14.710;2022-07-12T02:07:33;98104.00;;;15.50
68027;BMP180;54819;48.030;14.710;2022-07-12T02:10:01;98106.40;;;15.50
68027;BMP180;54819;48.030;14.710;2022-07-12T02:12:27;98105.80;;;15.50
68027;BMP180;54819;48.030;14.710;2022-07-12T02:14:54;98099.00;;;15.44
68027;BMP180;54819;48.030;14.710;2022-07-12T02:17:21;98098.40;;;15.40
68027;BMP180;54819;48.030;14.710;2022-07-12T02:19:49;98094.20;;;15.40
68027;BMP180;54819;48.030;14.710;2022-07-12T02:22:15;98096.80;;;15.40
68027;BMP180;54819;48.030;14.710;2022-07-12T02:24:42;98092.40;;;15.38
68027;BMP180;54819;48.030;14.710;2022-07-12T02:27:09;98092.00;;;15.40
68027;BMP180;54819;48.030;14.710;2022-07-12T02:29:36;98089.80;;;15.40
68027;BMP180;54819;48.030;14.710;2022-07-12T02:32:03;98089.80;;;15.40
68027;BMP180;54819;48.030;14.710;2022-07-12T02:34:30;98095.80;;;15.40
68027;BMP180;54819;48.030;14.710;2022-07-12T02:36:57;98099.00;;;15.36
68027;BMP180;54819;48.030;14.710;2022-07-12T02:39:24;98100.00;;;15.30
68027;BMP180;54819;48.030;14.710;2022-07-12T02:41:52;98102.40;;;15.30
68027;BMP180;54819;48.030;14.710;2022-07-12T02:44:18;98101.60;;;15.30
68027;BMP180;54819;48.030;14.710;2022-07-12T02:46:46;98105.80;;;15.30
68027;BMP180;54819;48.030;14.710;2022-07-12T02:49:14;98107.80;;;15.20
68027;BMP180;54819;48.030;14.710;2022-07-12T02:51:41;98107.00;;;15.20
68027;BMP180;54819;48.030;14.710;2022-07-12T02:54:07;98107.60;;;15.20
68027;BMP180;54819;48.030;14.710;2022-07-12T02:56:34;98110.00;;;15.20
68027;BMP180;54819;48.030;14.710;2022-07-12T02:59:01;98110.60;;;15.24
68027;BMP180;54819;48.030;14.710;2022-07-12T03:01:28;98114.00;;;15.30
68027;BMP180;54819;48.030;14.710;2022-07-12T03:03:55;98115.60;;;15.30
68027;BMP180;54819;48.030;14.710;2022-07-12T03:06:22;98120.40;;;15.40
68027;BMP180;54819;48.030;14.710;2022-07-12T03:08:49;98120.20;;;15.40
68027;BMP180;54819;48.030;14.710;2022-07-12T03:11:16;98118.00;;;15.40
68027;BMP180;54819;48.030;14.710;2022-07-12T03:13:43;98122.40;;;15.50
68027;BMP180;54819;48.030;14.710;2022-07-12T03:16:10;98122.20;;;15.50
68027;BMP180;54819;48.030;14.710;2022-07-12T03:18:39;98124.40;;;15.50
68027;BMP180;54819;48.030;14.710;2022-07-12T03:21:07;98125.60;;;15.50
68027;BMP180;54819;48.030;14.710;2022-07-12T03:23:34;98126.00;;;15.50
68027;BMP180;54819;48.030;14.710;2022-07-12T03:26:02;98132.00;;;15.50
68027;BMP180;54819;48.030;14.710;2022-07-12T03:28:29;98134.40;;;15.50
68027;BMP180;54819;48.030;14.710;2022-07-12T03:30:56;98138.60;;;15.50
68027;BMP180;54819;48.030;14.710;2022-07-12T03:33:23;98140.40;;;15.40
68027;BMP180;54819;48.030;14.710;2022-07-12T03:35:58;98141.80;;;15.40
68027;BMP180;54819;48.030;14.710;2022-07-12T03:38:25;98148.00;;;15.40
68027;BMP180;54819;48.030;14.710;2022-07-12T03:40:52;98143.60;;;15.40
68027;BMP180;54819;48.030;14.710;2022-07-12T03:43:19;98145.20;;;15.40
68027;BMP180;54819;48.030;14.710;2022-07-12T03:45:46;98145.40;;;15.42
68027;BMP180;54819;48.030;14.710;2022-07-12T03:48:13;98145.40;;;15.50
68027;BMP180;54819;48.030;14.710;2022-07-12T03:50:40;98145.20;;;15.50
68027;BMP180;54819;48.030;14.710;2022-07-12T03:53:07;98146.00;;;15.50
68027;BMP180;54819;48.030;14.710;2022-07-12T03:55:34;98151.00;;;15.58
68027;BMP180;54819;48.030;14.710;2022-07-12T03:58:00;98153.20;;;15.60
68027;BMP180;54819;48.030;14.710;2022-07-12T04:00:27;98152.80;;;15.60
68027;BMP180;54819;48.030;14.710;2022-07-12T04:02:54;98154.00;;;15.60
68027;BMP180;54819;48.030;14.710;2022-07-12T04:05:22;98158.60;;;15.60
68027;BMP180;54819;48.030;14.710;2022-07-12T04:07:53;98161.20;;;15.70
68027;BMP180;54819;48.030;14.710;2022-07-12T04:10:21;98170.00;;;15.70
68027;BMP180;54819;48.030;14.710;2022-07-12T04:12:48;98165.40;;;15.70
68027;BMP180;54819;48.030;14.710;2022-07-12T04:15:17;98164.80;;;15.70
68027;BMP180;54819;48.030;14.710;2022-07-12T04:17:44;98166.20;;;15.80
68027;BMP180;54819;48.030;14.710;2022-07-12T04:20:11;98169.60;;;15.80
68027;BMP180;54819;48.030;14.710;2022-07-12T04:22:38;98171.60;;;15.80
68027;BMP180;54819;48.030;14.710;2022-07-12T04:25:07;98170.40;;;15.80
68027;BMP180;54819;48.030;14.710;2022-07-12T04:27:35;98171.00;;;15.80
68027;BMP180;54819;48.030;14.710;2022-07-12T04:30:03;98168.60;;;15.90
68027;BMP180;54819;48.030;14.710;2022-07-12T04:32:30;98167.80;;;15.90
68027;BMP180;54819;48.030;14.710;2022-07-12T04:34:57;98168.00;;;15.90
68027;BMP180;54819;48.030;14.710;2022-07-12T04:37:24;98166.40;;;16.00
68027;BMP180;54819;48.030;14.710;2022-07-12T04:39:51;98163.40;;;16.00
68027;BMP180;54819;48.030;14.710;2022-07-12T04:42:19;98165.00;;;16.04
68027;BMP180;54819;48.030;14.710;2022-07-12T04:44:45;98171.20;;;16.10
68027;BMP180;54819;48.030;14.710;2022-07-12T04:47:12;98173.40;;;16.20
68027;BMP180;54819;48.030;14.710;2022-07-12T04:49:39;98172.80;;;16.20
68027;BMP180;54819;48.030;14.710;2022-07-12T04:52:06;98171.40;;;16.30
68027;BMP180;54819;48.030;14.710;2022-07-12T04:54:33;98175.80;;;16.30
68027;BMP180;54819;48.030;14.710;2022-07-12T04:57:00;98176.00;;;16.40
68027;BMP180;54819;48.030;14.710;2022-07-12T04:59:27;98175.60;;;16.40
68027;BMP180;54819;48.030;14.710;2022-07-12T05:01:54;98180.00;;;16.46
68027;BMP180;54819;48.030;14.710;2022-07-12T05:04:21;98182.20;;;16.40
68027;BMP180;54819;48.030;14.710;2022-07-12T05:06:48;98181.80;;;16.50
68027;BMP180;54819;48.030;14.710;2022-07-12T05:09:16;98181.80;;;16.50
68027;BMP180;54819;48.030;14.710;2022-07-12T05:11:43;98178.20;;;16.50
68027;BMP180;54819;48.030;14.710;2022-07-12T05:14:10;98181.60;;;16.50
68027;BMP180;54819;48.030;14.710;2022-07-12T05:16:36;98181.40;;;16.50
68027;BMP180;54819;48.030;14.710;2022-07-12T05:19:03;98173.80;;;16.58
68027;BMP180;54819;48.030;14.710;2022-07-12T05:21:30;98177.00;;;16.60
68027;BMP180;54819;48.030;14.710;2022-07-12T05:23:59;98182.80;;;16.60
68027;BMP180;54819;48.030;14.710;2022-07-12T05:26:25;98187.20;;;16.70
68027;BMP180;54819;48.030;14.710;2022-07-12T05:28:53;98192.40;;;16.70
68027;BMP180;54819;48.030;14.710;2022-07-12T05:31:21;98195.00;;;16.70
68027;BMP180;54819;48.030;14.710;2022-07-12T05:33:48;98197.80;;;16.70
68027;BMP180;54819;48.030;14.710;2022-07-12T05:36:15;98200.40;;;16.78
68027;BMP180;54819;48.030;14.710;2022-07-12T05:38:42;98205.40;;;16.80
68027;BMP180;54819;48.030;14.710;2022-07-12T05:41:09;98209.40;;;16.80
68027;BMP180;54819;48.030;14.710;2022-07-12T05:43:36;98206.80;;;16.80
68027;BMP180;54819;48.030;14.710;2022-07-12T05:46:03;98207.40;;;16.90
68027;BMP180;54819;48.030;14.710;2022-07-12T05:48:31;98212.00;;;16.90
68027;BMP180;54819;48.030;14.710;2022-07-12T05:50:57;98208.20;;;17.00
68027;BMP180;54819;48.030;14.710;2022-07-12T05:53:43;98207.80;;;17.12
68027;BMP180;54819;48.030;14.710;2022-07-12T05:56:10;98212.40;;;17.28
68027;BMP180;54819;48.030;14.710;2022-07-12T05:58:37;98210.20;;;17.40
68027;BMP180;54819;48.030;14.710;2022-07-12T06:01:06;98208.80;;;17.58
68027;BMP180;54819;48.030;14.710;2022-07-12T06:03:33;98210.20;;;17.74
68027;BMP180;54819;48.030;14.710;2022-07-12T06:06:00;98211.00;;;17.90
68027;BMP180;54819;48.030;14.710;2022-07-12T06:08:28;98210.60;;;18.12
68027;BMP180;54819;48.030;14.710;2022-07-12T06:10:55;98216.00;;;18.36
68027;BMP180;54819;48.030;14.710;2022-07-12T06:13:22;98215.20;;;18.60
68027;BMP180;54819;48.030;14.710;2022-07-12T06:15:49;98215.40;;;18.80
68027;BMP180;54819;48.030;14.710;2022-07-12T06:18:16;98210.20;;;18.98
68027;BMP180;54819;48.030;14.710;2022-07-12T06:20:43;98209.00;;;19.18
68027;BMP180;54819;48.030;14.710;2022-07-12T06:23:10;98207.00;;;19.40
68027;BMP180;54819;48.030;14.710;2022-07-12T06:25:36;98204.80;;;19.60
68027;BMP180;54819;48.030;14.710;2022-07-12T06:28:09;98207.20;;;19.90
68027;BMP180;54819;48.030;14.710;2022-07-12T06:30:37;98207.00;;;20.10
68027;BMP180;54819;48.030;14.710;2022-07-12T06:33:04;98204.00;;;20.20
68027;BMP180;54819;48.030;14.710;2022-07-12T06:35:32;98210.20;;;20.26
68027;BMP180;54819;48.030;14.710;2022-07-12T06:38:01;98211.60;;;20.30
68027;BMP180;54819;48.030;14.710;2022-07-12T06:40:29;98221.00;;;20.30
68027;BMP180;54819;48.030;14.710;2022-07-12T06:42:56;98222.00;;;20.30
68027;BMP180;54819;48.030;14.710;2022-07-12T06:45:23;98224.40;;;20.30
68027;BMP180;54819;48.030;14.710;2022-07-12T06:47:51;98221.60;;;20.30
68027;BMP180;54819;48.030;14.710;2022-07-12T06:50:19;98216.20;;;20.40
68027;BMP180;54819;48.030;14.710;2022-07-12T06:52:45;98220.00;;;20.40
68027;BMP180;54819;48.030;14.710;2022-07-12T06:55:12;98221.60;;;20.50
68027;BMP180;54819;48.030;14.710;2022-07-12T06:57:40;98220.40;;;20.50
68027;BMP180;54819;48.030;14.710;2022-07-12T07:00:07;98228.00;;;20.56
68027;BMP180;54819;48.030;14.710;2022-07-12T07:02:35;98224.40;;;20.60
68027;BMP180;54819;48.030;14.710;2022-07-12T07:05:02;98223.60;;;20.70
68027;BMP180;54819;48.030;14.710;2022-07-12T07:07:29;98221.80;;;20.80
68027;BMP180;54819;48.030;14.710;2022-07-12T07:09:56;98226.00;;;20.90
68027;BMP180;54819;48.030;14.710;2022-07-12T07:12:23;98225.20;;;21.00
68027;BMP180;54819;48.030;14.710;2022-07-12T07:14:50;98227.20;;;21.14
68027;BMP180;54819;48.030;14.710;2022-07-12T07:17:17;98226.40;;;21.30
68027;BMP180;54819;48.030;14.710;2022-07-12T07:19:46;98237.40;;;21.40
68027;BMP180;54819;48.030;14.710;2022-07-12T07:22:13;98235.00;;;21.60
68027;BMP180;54819;48.030;14.710;2022-07-12T07:24:41;98232.40;;;21.82
68027;BMP180;54819;48.030;14.710;2022-07-12T07:27:08;98232.60;;;22.00
68027;BMP180;54819;48.030;14.710;2022-07-12T07:29:35;98230.80;;;22.20
68027;BMP180;54819;48.030;14.710;2022-07-12T07:32:21;98232.00;;;22.40
68027;BMP180;54819;48.030;14.710;2022-07-12T07:34:48;98229.20;;;22.60
68027;BMP180;54819;48.030;14.710;2022-07-12T07:37:15;98228.60;;;22.80
68027;BMP180;54819;48.030;14.710;2022-07-12T07:39:42;98228.20;;;23.00
68027;BMP180;54819;48.030;14.710;2022-07-12T07:42:10;98224.80;;;23.20
68027;BMP180;54819;48.030;14.710;2022-07-12T07:44:37;98224.80;;;23.30
68027;BMP180;54819;48.030;14.710;2022-07-12T07:47:24;98227.00;;;23.50
68027;BMP180;54819;48.030;14.710;2022-07-12T07:49:54;98219.40;;;23.66
68027;BMP180;54819;48.030;14.710;2022-07-12T07:52:21;98224.40;;;23.80
68027;BMP180;54819;48.030;14.710;2022-07-12T07:54:48;98222.00;;;24.04
68027;BMP180;54819;48.030;14.710;2022-07-12T07:57:16;98225.40;;;24.18
68027;BMP180;54819;48.030;14.710;2022-07-12T07:59:43;98224.80;;;24.26
68027;BMP180;54819;48.030;14.710;2022-07-12T08:02:13;98220.00;;;24.38
68027;BMP180;54819;48.030;14.710;2022-07-12T08:04:40;98225.20;;;24.50
68027;BMP180;54819;48.030;14.710;2022-07-12T08:07:07;98230.20;;;24.50
68027;BMP180;54819;48.030;14.710;2022-07-12T08:09:34;98226.20;;;24.60
68027;BMP180;54819;48.030;14.710;2022-07-12T08:12:00;98231.00;;;24.60
68027;BMP180;54819;48.030;14.710;2022-07-12T08:14:27;98233.80;;;24.60
68027;BMP180;54819;48.030;14.710;2022-07-12T08:16:54;98233.00;;;24.44
68027;BMP180;54819;48.030;14.710;2022-07-12T08:19:21;98228.80;;;24.30
68027;BMP180;54819;48.030;14.710;2022-07-12T08:21:48;98232.60;;;24.08
68027;BMP180;54819;48.030;14.710;2022-07-12T08:24:15;98231.60;;;23.92
68027;BMP180;54819;48.030;14.710;2022-07-12T08:26:42;98230.00;;;23.90
68027;BMP180;54819;48.030;14.710;2022-07-12T08:29:09;98232.40;;;23.70
68027;BMP180;54819;48.030;14.710;2022-07-12T08:31:36;98228.00;;;23.60
68027;BMP180;54819;48.030;14.710;2022-07-12T08:34:03;98230.00;;;23.50
68027;BMP180;54819;48.030;14.710;2022-07-12T08:36:30;98227.00;;;23.50
68027;BMP180;54819;48.030;14.710;2022-07-12T08:39:00;98229.00;;;23.62
68027;BMP180;54819;48.030;14.710;2022-07-12T08:41:27;98219.40;;;23.88
68027;BMP180;54819;48.030;14.710;2022-07-12T08:43:55;98228.40;;;24.12
68027;BMP180;54819;48.030;14.710;2022-07-12T08:46:22;98226.00;;;24.46
68027;BMP180;54819;48.030;14.710;2022-07-12T08:48:49;98230.00;;;24.70
68027;BMP180;54819;48.030;14.710;2022-07-12T08:51:20;98227.20;;;24.80
68027;BMP180;54819;48.030;14.710;2022-07-12T08:54:04;98231.40;;;25.06
68027;BMP180;54819;48.030;14.710;2022-07-12T08:56:42;98233.20;;;25.20
68027;BMP180;54819;48.030;14.710;2022-07-12T08:59:17;98231.00;;;25.20
68027;BMP180;54819;48.030;14.710;2022-07-12T09:04:22;98228.80;;;25.20
68027;BMP180;54819;48.030;14.710;2022-07-12T09:06:49;98228.20;;;25.20
68027;BMP180;54819;48.030;14.710;2022-07-12T09:09:34;98234.00;;;25.30
68027;BMP180;54819;48.030;14.710;2022-07-12T09:12:04;98236.00;;;25.14
68027;BMP180;54819;48.030;14.710;2022-07-12T09:14:31;98232.20;;;25.10
68027;BMP180;54819;48.030;14.710;2022-07-12T09:17:04;98229.80;;;25.26
68027;BMP180;54819;48.030;14.710;2022-07-12T09:19:36;98230.80;;;25.42
68027;BMP180;54819;48.030;14.710;2022-07-12T09:22:05;98237.20;;;25.64
68027;BMP180;54819;48.030;14.710;2022-07-12T09:24:39;98235.20;;;25.80
68027;BMP180;54819;48.030;14.710;2022-07-12T09:27:07;98238.80;;;25.80
68027;BMP180;54819;48.030;14.710;2022-07-12T09:29:46;98240.80;;;25.80
68027;BMP180;54819;48.030;14.710;2022-07-12T09:32:17;98242.40;;;25.80
68027;BMP180;54819;48.030;14.710;2022-07-12T09:35:03;98240.80;;;25.90
68027;BMP180;54819;48.030;14.710;2022-07-12T09:37:49;98243.20;;;26.00
68027;BMP180;54819;48.030;14.710;2022-07-12T09:40:17;98242.20;;;26.10
68027;BMP180;54819;48.030;14.710;2022-07-12T09:42:44;98242.20;;;26.28
68027;BMP180;54819;48.030;14.710;2022-07-12T09:45:12;98244.40;;;26.30
68027;BMP180;54819;48.030;14.710;2022-07-12T09:47:39;98245.60;;;26.40
68027;BMP180;54819;48.030;14.710;2022-07-12T09:50:07;98246.20;;;26.42
68027;BMP180;54819;48.030;14.710;2022-07-12T09:52:37;98246.40;;;26.50
68027;BMP180;54819;48.030;14.710;2022-07-12T09:55:07;98243.40;;;26.60
68027;BMP180;54819;48.030;14.710;2022-07-12T09:57:39;98248.60;;;26.70
68027;BMP180;54819;48.030;14.710;2022-07-12T10:00:07;98244.60;;;26.70
68027;BMP180;54819;48.030;14.710;2022-07-12T10:02:39;98246.00;;;26.86
68027;BMP180;54819;48.030;14.710;2022-07-12T10:05:08;98246.40;;;27.00
68027;BMP180;54819;48.030;14.710;2022-07-12T10:07:37;98246.40;;;27.02
68027;BMP180;54819;48.030;14.710;2022-07-12T10:10:05;98243.40;;;27.10
68027;BMP180;54819;48.030;14.710;2022-07-12T10:12:33;98243.00;;;27.10
68027;BMP180;54819;48.030;14.710;2022-07-12T10:15:04;98245.40;;;27.20
68027;BMP180;54819;48.030;14.710;2022-07-12T10:17:32;98244.00;;;27.30
68027;BMP180;54819;48.030;14.710;2022-07-12T10:22:42;98234.40;;;27.10
68027;BMP180;54819;48.030;14.710;2022-07-12T10:25:32;98237.00;;;27.10
68027;BMP180;54819;48.030;14.710;2022-07-12T10:28:01;98236.00;;;26.90
68027;BMP180;54819;48.030;14.710;2022-07-12T10:30:29;98240.40;;;26.80
68027;BMP180;54819;48.030;14.710;2022-07-12T10:32:58;98234.80;;;26.54
68027;BMP180;54819;48.030;14.710;2022-07-12T10:35:28;98233.40;;;26.20
68027;BMP180;54819;48.030;14.710;2022-07-12T10:40:41;98227.20;;;25.70
68027;BMP180;54819;48.030;14.710;2022-07-12T10:45:42;98223.00;;;25.30
68027;BMP180;54819;48.030;14.710;2022-07-12T10:53:33;98220.60;;;25.68
68027;BMP180;54819;48.030;14.710;2022-07-12T10:58:32;98211.80;;;26.50
68027;BMP180;54819;48.030;14.710;2022-07-12T11:01:02;98221.00;;;26.80
68027;BMP180;54819;48.030;14.710;2022-07-12T11:03:43;98218.40;;;26.98
68027;BMP180;54819;48.030;14.710;2022-07-12T11:06:13;98222.80;;;27.10
68027;BMP180;54819;48.030;14.710;2022-07-12T11:08:57;98221.80;;;27.20
68027;BMP180;54819;48.030;14.710;2022-07-12T11:11:30;98220.20;;;27.30
68027;BMP180;54819;48.030;14.710;2022-07-12T11:13:58;98214.80;;;27.40
68027;BMP180;54819;48.030;14.710;2022-07-12T11:16:26;98218.00;;;27.50
68027;BMP180;54819;48.030;14.710;2022-07-12T11:18:54;98222.60;;;27.42
68027;BMP180;54819;48.030;14.710;2022-07-12T11:21:23;98215.20;;;27.22
68027;BMP180;54819;48.030;14.710;2022-07-12T11:23:51;98216.40;;;27.20
68027;BMP180;54819;48.030;14.710;2022-07-12T11:26:18;98216.60;;;27.20
68027;BMP180;54819;48.030;14.710;2022-07-12T11:28:46;98211.20;;;27.34
68027;BMP180;54819;48.030;14.710;2022-07-12T11:31:17;98202.60;;;27.50
68027;BMP180;54819;48.030;14.710;2022-07-12T11:33:46;98198.60;;;27.60
68027;BMP180;54819;48.030;14.710;2022-07-12T11:36:14;98198.80;;;27.70
68027;BMP180;54819;48.030;14.710;2022-07-12T11:38:43;98200.80;;;27.70
68027;BMP180;54819;48.030;14.710;2022-07-12T11:41:13;98199.40;;;27.78
68027;BMP180;54819;48.030;14.710;2022-07-12T11:43:41;98205.40;;;27.78
68027;BMP180;54819;48.030;14.710;2022-07-12T11:46:09;98194.00;;;27.70
68027;BMP180;54819;48.030;14.710;2022-07-12T11:48:37;98195.60;;;27.70
68027;BMP180;54819;48.030;14.710;2022-07-12T11:51:07;98198.40;;;27.80
68027;BMP180;54819;48.030;14.710;2022-07-12T11:53:35;98196.20;;;27.86
68027;BMP180;54819;48.030;14.710;2022-07-12T11:56:04;98196.40;;;27.90
68027;BMP180;54819;48.030;14.710;2022-07-12T11:58:33;98192.20;;;27.96
68027;BMP180;54819;48.030;14.710;2022-07-12T12:01:01;98190.40;;;27.90
68027;BMP180;54819;48.030;14.710;2022-07-12T12:03:28;98185.60;;;27.90
68027;BMP180;54819;48.030;14.710;2022-07-12T12:05:56;98183.20;;;27.90
68027;BMP180;54819;48.030;14.710;2022-07-12T12:08:24;98188.40;;;28.00
68027;BMP180;54819;48.030;14.710;2022-07-12T12:10:56;98192.20;;;27.90
68027;BMP180;54819;48.030;14.710;2022-07-12T12:13:29;98188.00;;;27.70
68027;BMP180;54819;48.030;14.710;2022-07-12T12:15:58;98183.00;;;27.60
68027;BMP180;54819;48.030;14.710;2022-07-12T12:21:05;98174.80;;;27.30
68027;BMP180;54819;48.030;14.710;2022-07-12T12:23:33;98180.20;;;27.10
68027;BMP180;54819;48.030;14.710;2022-07-12T12:28:45;98178.00;;;27.10
68027;BMP180;54819;48.030;14.710;2022-07-12T12:31:13;98172.20;;;27.10
68027;BMP180;54819;48.030;14.710;2022-07-12T12:33:43;98168.40;;;27.18
68027;BMP180;54819;48.030;14.710;2022-07-12T12:38:42;98162.60;;;27.50
68027;BMP180;54819;48.030;14.710;2022-07-12T12:41:09;98161.80;;;27.70
68027;BMP180;54819;48.030;14.710;2022-07-12T12:43:37;98173.00;;;27.80
68027;BMP180;54819;48.030;14.710;2022-07-12T12:46:04;98172.80;;;27.80
68027;BMP180;54819;48.030;14.710;2022-07-12T12:48:33;98166.20;;;27.90
68027;BMP180;54819;48.030;14.710;2022-07-12T12:53:31;98166.80;;;28.00
68027;BMP180;54819;48.030;14.710;2022-07-12T12:55:58;98169.60;;;28.00
68027;BMP180;54819;48.030;14.710;2022-07-12T12:58:26;98170.20;;;27.90
68027;BMP180;54819;48.030;14.710;2022-07-12T13:00:54;98169.80;;;27.80
68027;BMP180;54819;48.030;14.710;2022-07-12T13:03:22;98173.60;;;27.70
68027;BMP180;54819;48.030;14.710;2022-07-12T13:05:52;98170.60;;;27.70
68027;BMP180;54819;48.030;14.710;2022-07-12T13:08:20;98179.00;;;27.70
68027;BMP180;54819;48.030;14.710;2022-07-12T13:10:47;98178.20;;;27.60
68027;BMP180;54819;48.030;14.710;2022-07-12T13:13:36;98177.00;;;27.52
68027;BMP180;54819;48.030;14.710;2022-07-12T13:16:04;98179.00;;;27.60
68027;BMP180;54819;48.030;14.710;2022-07-12T13:18:31;98180.80;;;27.70
68027;BMP180;54819;48.030;14.710;2022-07-12T13:20:58;98180.00;;;27.70
68027;BMP180;54819;48.030;14.710;2022-07-12T13:23:25;98179.80;;;27.70
68027;BMP180;54819;48.030;14.710;2022-07-12T13:25:52;98177.40;;;27.60
68027;BMP180;54819;48.030;14.710;2022-07-12T13:28:20;98179.80;;;27.60
68027;BMP180;54819;48.030;14.710;2022-07-12T13:30:47;98184.60;;;27.50
68027;BMP180;54819;48.030;14.710;2022-07-12T13:33:14;98186.00;;;27.32
68027;BMP180;54819;48.030;14.710;2022-07-12T13:35:42;98193.60;;;27.30
68027;BMP180;54819;48.030;14.710;2022-07-12T13:38:09;98192.80;;;27.40
68027;BMP180;54819;48.030;14.710;2022-07-12T13:40:36;98197.80;;;27.40
68027;BMP180;54819;48.030;14.710;2022-07-12T13:43:03;98203.20;;;27.30
68027;BMP180;54819;48.030;14.710;2022-07-12T13:45:30;98203.20;;;27.20
68027;BMP180;54819;48.030;14.710;2022-07-12T13:48:00;98202.40;;;27.10
68027;BMP180;54819;48.030;14.710;2022-07-12T13:50:28;98204.20;;;27.10
68027;BMP180;54819;48.030;14.710;2022-07-12T13:52:58;98201.20;;;26.92
68027;BMP180;54819;48.030;14.710;2022-07-12T13:55:27;98204.60;;;26.94
68027;BMP180;54819;48.030;14.710;2022-07-12T13:57:54;98199.40;;;27.00
68027;BMP180;54819;48.030;14.710;2022-07-12T14:00:21;98196.80;;;27.10
68027;BMP180;54819;48.030;14.710;2022-07-12T14:02:49;98189.20;;;27.18
68027;BMP180;54819;48.030;14.710;2022-07-12T14:05:21;98193.20;;;27.26
68027;BMP180;54819;48.030;14.710;2022-07-12T14:07:50;98190.00;;;27.40
68027;BMP180;54819;48.030;14.710;2022-07-12T14:10:17;98187.80;;;27.40
68027;BMP180;54819;48.030;14.710;2022-07-12T14:12:44;98194.80;;;27.50
68027;BMP180;54819;48.030;14.710;2022-07-12T14:15:12;98195.40;;;27.50
68027;BMP180;54819;48.030;14.710;2022-07-12T14:17:44;98197.00;;;27.36
68027;BMP180;54819;48.030;14.710;2022-07-12T14:20:13;98200.00;;;27.30
68027;BMP180;54819;48.030;14.710;2022-07-12T14:22:41;98195.00;;;27.28
68027;BMP180;54819;48.030;14.710;2022-07-12T14:25:08;98193.40;;;27.36
68027;BMP180;54819;48.030;14.710;2022-07-12T14:27:37;98188.00;;;27.30
68027;BMP180;54819;48.030;14.710;2022-07-12T14:30:05;98196.20;;;27.32
68027;BMP180;54819;48.030;14.710;2022-07-12T14:32:35;98192.20;;;27.40